sensor_id;sensor_type;location;lat;lon;timestamp;P1;durP1;ratioP1;P2;durP2;ratioP2
47778;SDS011;33538;48.432;11.350;2024-02-21T00:00:53;5.15;;;1.88;;
47778;SDS011;33538;48.432;11.350;2024-02-21T00:03:20;3.33;;;1.73;;
47778;SDS011;33538;48.432;11.350;2024-02-21T00:05:48;2.67;;;1.77;;
47778;SDS011;33538;48.432;11.350;2024-02-21T00:08:14;3.78;;;1.55;;
47778;SDS011;33538;48.432;11.350;2024-02-21T00:10:43;4.90;;;1.77;;
47778;SDS011;33538;48.432;11.350;2024-02-21T00:13:10;5.05;;;1.42;;
47778;SDS011;33538;48.432;11.350;2024-02-21T00:15:37;6.43;;;2.22;;
47778;SDS011;33538;48.432;11.350;2024-02-21T00:18:04;4.15;;;1.92;;
47778;SDS011;33538;48.432;11.350;2024-02-21T00:20:31;4.30;;;2.05;;
47778;SDS011;33538;48.432;11.350;2024-02-21T00:22:57;4.53;;;1.60;;
47778;SDS011;33538;48.432;11.350;2024-02-21T00:25:25;7.00;;;2.08;;
47778;SDS011;33538;48.432;11.350;2024-02-21T00:27:53;2.95;;;1.77;;
47778;SDS011;33538;48.432;11.350;2024-02-21T00:30:20;6.28;;;1.88;;
47778;SDS011;33538;48.432;11.350;2024-02-21T00:32:47;3.63;;;1.90;;
47778;SDS011;33538;48.432;11.350;2024-02-21T00:35:14;5.38;;;2.05;;
47778;SDS011;33538;48.432;11.350;2024-02-21T00:37:41;3.85;;;1.90;;
47778;SDS011;33538;48.432;11.350;2024-02-21T00:40:08;4.95;;;1.60;;
47778;SDS011;33538;48.432;11.350;2024-02-21T00:42:35;8.75;;;1.63;;
47778;SDS011;33538;48.432;11.350;2024-02-21T00:45:04;2.63;;;1.48;;
47778;SDS011;33538;48.432;11.350;2024-02-21T00:47:32;4.22;;;1.65;;
47778;SDS011;33538;48.432;11.350;2024-02-21T00:49:59;3.22;;;1.40;;
47778;SDS011;33538;48.432;11.350;2024-02-21T00:52:26;7.53;;;1.65;;
47778;SDS011;33538;48.432;11.350;2024-02-21T00:54:53;8.32;;;1.85;;
47778;SDS011;33538;48.432;11.350;2024-02-21T00:57:20;5.53;;;2.10;;
47778;SDS011;33538;48.432;11.350;2024-02-21T00:59:47;6.35;;;1.50;;
47778;SDS011;33538;48.432;11.350;2024-02-21T01:02:15;5.10;;;1.73;;
47778;SDS011;33538;48.432;11.350;2024-02-21T01:04:42;4.93;;;2.13;;
47778;SDS011;33538;48.432;11.350;2024-02-21T01:07:09;5.13;;;1.50;;
47778;SDS011;33538;48.432;11.350;2024-02-21T01:09:36;3.25;;;1.65;;
47778;SDS011;33538;48.432;11.350;2024-02-21T01:12:03;3.17;;;1.77;;
47778;SDS011;33538;48.432;11.350;2024-02-21T01:14:30;6.45;;;2.58;;
47778;SDS011;33538;48.432;11.350;2024-02-21T01:16:57;3.17;;;1.63;;
47778;SDS011;33538;48.432;11.350;2024-02-21T01:19:25;2.17;;;1.60;;
47778;SDS011;33538;48.432;11.350;2024-02-21T01:21:52;3.17;;;1.60;;
47778;SDS011;33538;48.432;11.350;2024-02-21T01:24:19;3.15;;;1.73;;
47778;SDS011;33538;48.432;11.350;2024-02-21T01:26:45;2.40;;;1.08;;
47778;SDS011;33538;48.432;11.350;2024-02-21T01:29:12;5.18;;;1.70;;
47778;SDS011;33538;48.432;11.350;2024-02-21T01:31:39;2.58;;;1.50;;
47778;SDS011;33538;48.432;11.350;2024-02-21T01:34:06;3.60;;;1.85;;
47778;SDS011;33538;48.432;11.350;2024-02-21T01:36:34;4.13;;;1.70;;
47778;SDS011;33538;48.432;11.350;2024-02-21T01:39:01;4.82;;;1.30;;
47778;SDS011;33538;48.432;11.350;2024-02-21T01:41:29;2.05;;;1.48;;
47778;SDS011;33538;48.432;11.350;2024-02-21T01:43:56;2.95;;;1.70;;
47778;SDS011;33538;48.432;11.350;2024-02-21T01:46:23;7.38;;;1.58;;
47778;SDS011;33538;48.432;11.350;2024-02-21T01:48:50;3.00;;;1.60;;
47778;SDS011;33538;48.432;11.350;2024-02-21T01:51:17;4.88;;;1.52;;
47778;SDS011;33538;48.432;11.350;2024-02-21T01:53:45;2.38;;;1.48;;
47778;SDS011;33538;48.432;11.350;2024-02-21T01:56:12;1.48;;;1.20;;
47778;SDS011;33538;48.432;11.350;2024-02-21T01:58:40;4.07;;;1.27;;
47778;SDS011;33538;48.432;11.350;2024-02-21T02:01:09;4.50;;;2.25;;
47778;SDS011;33538;48.432;11.350;2024-02-21T02:03:36;3.05;;;1.23;;
47778;SDS011;33538;48.432;11.350;2024-02-21T02:06:04;3.53;;;1.45;;
47778;SDS011;33538;48.432;11.350;2024-02-21T02:08:31;3.33;;;1.58;;
47778;SDS011;33538;48.432;11.350;2024-02-21T02:11:08;4.78;;;1.70;;
47778;SDS011;33538;48.432;11.350;2024-02-21T02:13:35;5.95;;;1.63;;
47778;SDS011;33538;48.432;11.350;2024-02-21T02:16:02;5.07;;;1.42;;
47778;SDS011;33538;48.432;11.350;2024-02-21T02:18:29;7.50;;;1.50;;
47778;SDS011;33538;48.432;11.350;2024-02-21T02:20:56;6.68;;;1.33;;
47778;SDS011;33538;48.432;11.350;2024-02-21T02:23:25;3.92;;;1.67;;
47778;SDS011;33538;48.432;11.350;2024-02-21T02:25:52;2.47;;;1.42;;
47778;SDS011;33538;48.432;11.350;2024-02-21T02:28:19;2.60;;;1.60;;
47778;SDS011;33538;48.432;11.350;2024-02-21T02:30:47;1.50;;;0.93;;
47778;SDS011;33538;48.432;11.350;2024-02-21T02:33:14;3.22;;;1.60;;
47778;SDS011;33538;48.432;11.350;2024-02-21T02:35:42;7.68;;;1.75;;
47778;SDS011;33538;48.432;11.350;2024-02-21T02:38:08;3.67;;;1.73;;
47778;SDS011;33538;48.432;11.350;2024-02-21T02:40:37;5.03;;;1.05;;
47778;SDS011;33538;48.432;11.350;2024-02-21T02:43:04;3.42;;;1.35;;
47778;SDS011;33538;48.432;11.350;2024-02-21T02:45:31;8.15;;;1.58;;
47778;SDS011;33538;48.432;11.350;2024-02-21T02:47:59;3.63;;;1.73;;
47778;SDS011;33538;48.432;11.350;2024-02-21T02:50:26;3.78;;;1.55;;
47778;SDS011;33538;48.432;11.350;2024-02-21T02:52:54;3.20;;;1.17;;
47778;SDS011;33538;48.432;11.350;2024-02-21T02:55:22;4.07;;;1.38;;
47778;SDS011;33538;48.432;11.350;2024-02-21T02:57:50;6.07;;;1.33;;
47778;SDS011;33538;48.432;11.350;2024-02-21T03:00:17;2.92;;;1.20;;
47778;SDS011;33538;48.432;11.350;2024-02-21T03:02:44;3.13;;;1.10;;
47778;SDS011;33538;48.432;11.350;2024-02-21T03:05:13;3.50;;;1.30;;
47778;SDS011;33538;48.432;11.350;2024-02-21T03:07:40;2.47;;;1.30;;
47778;SDS011;33538;48.432;11.350;2024-02-21T03:10:07;2.28;;;1.38;;
47778;SDS011;33538;48.432;11.350;2024-02-21T03:12:35;2.60;;;1.20;;
47778;SDS011;33538;48.432;11.350;2024-02-21T03:15:03;4.47;;;1.60;;
47778;SDS011;33538;48.432;11.350;2024-02-21T03:17:31;9.30;;;1.38;;
47778;SDS011;33538;48.432;11.350;2024-02-21T03:19:58;2.35;;;1.60;;
47778;SDS011;33538;48.432;11.350;2024-02-21T03:22:25;7.80;;;1.70;;
47778;SDS011;33538;48.432;11.350;2024-02-21T03:24:53;3.03;;;1.30;;
47778;SDS011;33538;48.432;11.350;2024-02-21T03:27:19;1.65;;;1.23;;
47778;SDS011;33538;48.432;11.350;2024-02-21T03:29:46;2.63;;;1.73;;
47778;SDS011;33538;48.432;11.350;2024-02-21T03:32:14;3.92;;;1.45;;
47778;SDS011;33538;48.432;11.350;2024-02-21T03:34:41;4.03;;;1.15;;
47778;SDS011;33538;48.432;11.350;2024-02-21T03:37:08;1.48;;;1.00;;
47778;SDS011;33538;48.432;11.350;2024-02-21T03:39:35;4.90;;;1.30;;
47778;SDS011;33538;48.432;11.350;2024-02-21T03:42:02;4.30;;;1.60;;
47778;SDS011;33538;48.432;11.350;2024-02-21T03:44:29;3.50;;;1.48;;
47778;SDS011;33538;48.432;11.350;2024-02-21T03:46:55;1.58;;;1.10;;
47778;SDS011;33538;48.432;11.350;2024-02-21T03:49:24;4.22;;;1.52;;
47778;SDS011;33538;48.432;11.350;2024-02-21T03:51:50;2.08;;;1.27;;
47778;SDS011;33538;48.432;11.350;2024-02-21T03:54:17;4.18;;;1.33;;
47778;SDS011;33538;48.432;11.350;2024-02-21T03:56:44;4.05;;;1.80;;
47778;SDS011;33538;48.432;11.350;2024-02-21T03:59:11;3.38;;;1.77;;
47778;SDS011;33538;48.432;11.350;2024-02-21T04:01:38;5.63;;;1.52;;
47778;SDS011;33538;48.432;11.350;2024-02-21T04:04:05;3.20;;;1.48;;
47778;SDS011;33538;48.432;11.350;2024-02-21T04:06:33;5.85;;;1.25;;
47778;SDS011;33538;48.432;11.350;2024-02-21T04:09:00;2.40;;;1.27;;
47778;SDS011;33538;48.432;11.350;2024-02-21T04:11:27;1.50;;;1.15;;
47778;SDS011;33538;48.432;11.350;2024-02-21T04:13:53;2.28;;;1.40;;
47778;SDS011;33538;48.432;11.350;2024-02-21T04:16:20;1.25;;;1.10;;
47778;SDS011;33538;48.432;11.350;2024-02-21T04:18:47;4.95;;;1.20;;
47778;SDS011;33538;48.432;11.350;2024-02-21T04:21:14;3.33;;;1.33;;
47778;SDS011;33538;48.432;11.350;2024-02-21T04:23:43;3.55;;;1.35;;
47778;SDS011;33538;48.432;11.350;2024-02-21T04:26:10;1.20;;;1.02;;
47778;SDS011;33538;48.432;11.350;2024-02-21T04:28:37;2.78;;;1.33;;
47778;SDS011;33538;48.432;11.350;2024-02-21T04:31:04;2.08;;;1.15;;
47778;SDS011;33538;48.432;11.350;2024-02-21T04:33:30;3.10;;;1.13;;
47778;SDS011;33538;48.432;11.350;2024-02-21T04:35:57;2.00;;;1.05;;
47778;SDS011;33538;48.432;11.350;2024-02-21T04:38:24;2.08;;;1.20;;
47778;SDS011;33538;48.432;11.350;2024-02-21T04:40:52;1.40;;;1.25;;
47778;SDS011;33538;48.432;11.350;2024-02-21T04:43:19;3.83;;;1.15;;
47778;SDS011;33538;48.432;11.350;2024-02-21T04:45:46;2.50;;;1.30;;
47778;SDS011;33538;48.432;11.350;2024-02-21T04:48:13;2.22;;;1.27;;
47778;SDS011;33538;48.432;11.350;2024-02-21T04:50:39;3.75;;;1.42;;
47778;SDS011;33538;48.432;11.350;2024-02-21T04:53:06;1.58;;;0.93;;
47778;SDS011;33538;48.432;11.350;2024-02-21T04:55:33;1.48;;;1.10;;
47778;SDS011;33538;48.432;11.350;2024-02-21T04:58:01;2.05;;;1.33;;
47778;SDS011;33538;48.432;11.350;2024-02-21T05:00:28;6.25;;;1.75;;
47778;SDS011;33538;48.432;11.350;2024-02-21T05:02:55;4.80;;;1.13;;
47778;SDS011;33538;48.432;11.350;2024-02-21T05:05:22;2.20;;;1.20;;
47778;SDS011;33538;48.432;11.350;2024-02-21T05:07:49;2.05;;;1.10;;
47778;SDS011;33538;48.432;11.350;2024-02-21T05:10:16;1.23;;;1.05;;
47778;SDS011;33538;48.432;11.350;2024-02-21T05:12:45;3.22;;;1.10;;
47778;SDS011;33538;48.432;11.350;2024-02-21T05:15:14;2.55;;;1.35;;
47778;SDS011;33538;48.432;11.350;2024-02-21T05:17:40;1.95;;;1.30;;
47778;SDS011;33538;48.432;11.350;2024-02-21T05:20:08;3.38;;;1.38;;
47778;SDS011;33538;48.432;11.350;2024-02-21T05:22:35;1.15;;;1.00;;
47778;SDS011;33538;48.432;11.350;2024-02-21T05:25:02;7.70;;;1.23;;
47778;SDS011;33538;48.432;11.350;2024-02-21T05:27:29;1.27;;;1.10;;
47778;SDS011;33538;48.432;11.350;2024-02-21T05:29:56;3.10;;;1.15;;
47778;SDS011;33538;48.432;11.350;2024-02-21T05:32:24;3.20;;;0.95;;
47778;SDS011;33538;48.432;11.350;2024-02-21T05:34:52;2.65;;;1.10;;
47778;SDS011;33538;48.432;11.350;2024-02-21T05:37:18;6.07;;;1.13;;
47778;SDS011;33538;48.432;11.350;2024-02-21T05:39:45;5.53;;;1.05;;
47778;SDS011;33538;48.432;11.350;2024-02-21T05:42:12;2.58;;;1.20;;
47778;SDS011;33538;48.432;11.350;2024-02-21T05:44:39;3.38;;;1.30;;
47778;SDS011;33538;48.432;11.350;2024-02-21T05:47:06;1.20;;;1.10;;
47778;SDS011;33538;48.432;11.350;2024-02-21T05:49:34;1.63;;;0.93;;
47778;SDS011;33538;48.432;11.350;2024-02-21T05:52:01;3.38;;;0.80;;
47778;SDS011;33538;48.432;11.350;2024-02-21T05:54:28;3.03;;;0.95;;
47778;SDS011;33538;48.432;11.350;2024-02-21T05:56:55;1.55;;;0.90;;
47778;SDS011;33538;48.432;11.350;2024-02-21T05:59:21;1.73;;;0.98;;
47778;SDS011;33538;48.432;11.350;2024-02-21T06:01:54;1.45;;;0.85;;
47778;SDS011;33538;48.432;11.350;2024-02-21T06:04:21;0.85;;;0.85;;
47778;SDS011;33538;48.432;11.350;2024-02-21T06:06:50;1.42;;;1.05;;
47778;SDS011;33538;48.432;11.350;2024-02-21T06:09:16;1.17;;;0.88;;
47778;SDS011;33538;48.432;11.350;2024-02-21T06:11:43;1.65;;;1.00;;
47778;SDS011;33538;48.432;11.350;2024-02-21T06:14:12;2.72;;;1.25;;
47778;SDS011;33538;48.432;11.350;2024-02-21T06:16:39;0.90;;;0.70;;
47778;SDS011;33538;48.432;11.350;2024-02-21T06:19:06;1.48;;;0.95;;
47778;SDS011;33538;48.432;11.350;2024-02-21T06:21:35;3.20;;;0.90;;
47778;SDS011;33538;48.432;11.350;2024-02-21T06:24:04;3.70;;;1.55;;
47778;SDS011;33538;48.432;11.350;2024-02-21T06:26:31;1.23;;;0.65;;
47778;SDS011;33538;48.432;11.350;2024-02-21T06:28:58;3.45;;;1.10;;
47778;SDS011;33538;48.432;11.350;2024-02-21T06:31:25;1.25;;;0.82;;
47778;SDS011;33538;48.432;11.350;2024-02-21T06:33:52;5.93;;;0.80;;
47778;SDS011;33538;48.432;11.350;2024-02-21T06:36:19;0.73;;;0.60;;
47778;SDS011;33538;48.432;11.350;2024-02-21T06:38:45;3.63;;;0.82;;
47778;SDS011;33538;48.432;11.350;2024-02-21T06:41:17;0.85;;;0.82;;
47778;SDS011;33538;48.432;11.350;2024-02-21T06:43:44;4.78;;;1.00;;
47778;SDS011;33538;48.432;11.350;2024-02-21T06:46:11;2.60;;;1.08;;
47778;SDS011;33538;48.432;11.350;2024-02-21T06:48:38;2.42;;;0.93;;
47778;SDS011;33538;48.432;11.350;2024-02-21T06:51:07;2.65;;;1.00;;
47778;SDS011;33538;48.432;11.350;2024-02-21T06:53:34;1.85;;;0.90;;
47778;SDS011;33538;48.432;11.350;2024-02-21T06:56:02;4.72;;;1.17;;
47778;SDS011;33538;48.432;11.350;2024-02-21T06:58:30;1.60;;;0.77;;
47778;SDS011;33538;48.432;11.350;2024-02-21T07:00:57;1.52;;;0.88;;
47778;SDS011;33538;48.432;11.350;2024-02-21T07:03:24;2.60;;;0.73;;
47778;SDS011;33538;48.432;11.350;2024-02-21T07:05:51;1.48;;;0.85;;
47778;SDS011;33538;48.432;11.350;2024-02-21T07:08:18;1.33;;;0.70;;
47778;SDS011;33538;48.432;11.350;2024-02-21T07:10:45;1.67;;;1.10;;
47778;SDS011;33538;48.432;11.350;2024-02-21T07:13:12;3.97;;;0.80;;
47778;SDS011;33538;48.432;11.350;2024-02-21T07:15:40;1.30;;;0.70;;
47778;SDS011;33538;48.432;11.350;2024-02-21T07:18:07;0.60;;;0.60;;
47778;SDS011;33538;48.432;11.350;2024-02-21T07:20:34;1.30;;;0.70;;
47778;SDS011;33538;48.432;11.350;2024-02-21T07:23:00;1.17;;;0.90;;
47778;SDS011;33538;48.432;11.350;2024-02-21T07:25:27;2.38;;;0.60;;
47778;SDS011;33538;48.432;11.350;2024-02-21T07:27:54;0.90;;;0.63;;
47778;SDS011;33538;48.432;11.350;2024-02-21T07:30:21;2.97;;;0.90;;
47778;SDS011;33538;48.432;11.350;2024-02-21T07:32:50;2.22;;;0.88;;
47778;SDS011;33538;48.432;11.350;2024-02-21T07:35:17;1.98;;;0.95;;
47778;SDS011;33538;48.432;11.350;2024-02-21T07:37:44;1.65;;;0.77;;
47778;SDS011;33538;48.432;11.350;2024-02-21T07:40:12;0.68;;;0.65;;
47778;SDS011;33538;48.432;11.350;2024-02-21T07:42:39;1.98;;;0.98;;
47778;SDS011;33538;48.432;11.350;2024-02-21T07:45:07;7.60;;;1.00;;
47778;SDS011;33538;48.432;11.350;2024-02-21T07:47:34;1.02;;;0.82;;
47778;SDS011;33538;48.432;11.350;2024-02-21T07:50:02;1.70;;;0.93;;
47778;SDS011;33538;48.432;11.350;2024-02-21T07:52:29;5.45;;;1.25;;
47778;SDS011;33538;48.432;11.350;2024-02-21T07:54:56;4.25;;;1.23;;
47778;SDS011;33538;48.432;11.350;2024-02-21T07:57:23;3.90;;;0.85;;
47778;SDS011;33538;48.432;11.350;2024-02-21T07:59:49;0.85;;;0.75;;
47778;SDS011;33538;48.432;11.350;2024-02-21T08:02:16;1.83;;;1.13;;
47778;SDS011;33538;48.432;11.350;2024-02-21T08:04:43;2.28;;;0.70;;
47778;SDS011;33538;48.432;11.350;2024-02-21T08:07:11;2.15;;;0.80;;
47778;SDS011;33538;48.432;11.350;2024-02-21T08:09:39;1.55;;;0.88;;
47778;SDS011;33538;48.432;11.350;2024-02-21T08:12:06;0.60;;;0.60;;
47778;SDS011;33538;48.432;11.350;2024-02-21T08:14:33;3.35;;;0.90;;
47778;SDS011;33538;48.432;11.350;2024-02-21T08:17:00;1.77;;;0.95;;
47778;SDS011;33538;48.432;11.350;2024-02-21T08:19:27;1.90;;;0.82;;
47778;SDS011;33538;48.432;11.350;2024-02-21T08:21:54;1.98;;;0.95;;
47778;SDS011;33538;48.432;11.350;2024-02-21T08:24:22;0.77;;;0.77;;
47778;SDS011;33538;48.432;11.350;2024-02-21T08:26:48;1.92;;;0.77;;
47778;SDS011;33538;48.432;11.350;2024-02-21T08:29:15;3.60;;;0.80;;
47778;SDS011;33538;48.432;11.350;2024-02-21T08:31:42;8.45;;;0.75;;
47778;SDS011;33538;48.432;11.350;2024-02-21T08:34:09;1.50;;;1.00;;
47778;SDS011;33538;48.432;11.350;2024-02-21T08:36:36;1.48;;;0.80;;
47778;SDS011;33538;48.432;11.350;2024-02-21T08:39:03;2.00;;;1.02;;
47778;SDS011;33538;48.432;11.350;2024-02-21T08:41:31;2.55;;;0.75;;
47778;SDS011;33538;48.432;11.350;2024-02-21T08:44:17;2.33;;;0.80;;
47778;SDS011;33538;48.432;11.350;2024-02-21T08:46:44;2.28;;;0.90;;
47778;SDS011;33538;48.432;11.350;2024-02-21T08:49:11;0.70;;;0.70;;
47778;SDS011;33538;48.432;11.350;2024-02-21T08:51:37;1.77;;;1.02;;
47778;SDS011;33538;48.432;11.350;2024-02-21T08:54:04;1.90;;;0.50;;
47778;SDS011;33538;48.432;11.350;2024-02-21T08:56:33;2.63;;;0.85;;
47778;SDS011;33538;48.432;11.350;2024-02-21T08:59:00;1.63;;;0.90;;
47778;SDS011;33538;48.432;11.350;2024-02-21T09:01:26;0.70;;;0.60;;
47778;SDS011;33538;48.432;11.350;2024-02-21T09:03:53;1.77;;;1.00;;
47778;SDS011;33538;48.432;11.350;2024-02-21T09:06:20;2.55;;;1.00;;
47778;SDS011;33538;48.432;11.350;2024-02-21T09:08:47;0.75;;;0.57;;
47778;SDS011;33538;48.432;11.350;2024-02-21T09:11:15;1.90;;;0.70;;
47778;SDS011;33538;48.432;11.350;2024-02-21T09:13:43;2.20;;;0.95;;
47778;SDS011;33538;48.432;11.350;2024-02-21T09:16:10;3.15;;;0.95;;
47778;SDS011;33538;48.432;11.350;2024-02-21T09:18:37;3.80;;;1.00;;
47778;SDS011;33538;48.432;11.350;2024-02-21T09:21:04;1.67;;;1.25;;
47778;SDS011;33538;48.432;11.350;2024-02-21T09:23:30;3.92;;;0.90;;
47778;SDS011;33538;48.432;11.350;2024-02-21T09:25:57;1.25;;;0.80;;
47778;SDS011;33538;48.432;11.350;2024-02-21T09:28:24;4.35;;;1.15;;
47778;SDS011;33538;48.432;11.350;2024-02-21T09:30:52;1.63;;;0.70;;
47778;SDS011;33538;48.432;11.350;2024-02-21T09:33:19;2.13;;;0.93;;
47778;SDS011;33538;48.432;11.350;2024-02-21T09:35:57;1.05;;;0.75;;
47778;SDS011;33538;48.432;11.350;2024-02-21T09:38:24;3.65;;;1.00;;
47778;SDS011;33538;48.432;11.350;2024-02-21T09:40:53;2.75;;;0.90;;
47778;SDS011;33538;48.432;11.350;2024-02-21T09:45:54;3.38;;;0.90;;
47778;SDS011;33538;48.432;11.350;2024-02-21T09:48:25;2.33;;;0.80;;
47778;SDS011;33538;48.432;11.350;2024-02-21T09:51:01;2.97;;;1.13;;
47778;SDS011;33538;48.432;11.350;2024-02-21T09:53:29;1.13;;;1.00;;
47778;SDS011;33538;48.432;11.350;2024-02-21T09:55:58;6.00;;;1.52;;
47778;SDS011;33538;48.432;11.350;2024-02-21T09:58:26;2.55;;;0.90;;
47778;SDS011;33538;48.432;11.350;2024-02-21T10:00:54;3.53;;;0.88;;
47778;SDS011;33538;48.432;11.350;2024-02-21T10:03:21;1.30;;;0.80;;
47778;SDS011;33538;48.432;11.350;2024-02-21T10:05:48;4.93;;;1.23;;
47778;SDS011;33538;48.432;11.350;2024-02-21T10:08:15;3.53;;;0.90;;
47778;SDS011;33538;48.432;11.350;2024-02-21T10:10:42;1.05;;;0.73;;
47778;SDS011;33538;48.432;11.350;2024-02-21T10:13:10;2.20;;;0.85;;
47778;SDS011;33538;48.432;11.350;2024-02-21T10:15:37;2.38;;;1.02;;
47778;SDS011;33538;48.432;11.350;2024-02-21T10:18:05;7.20;;;1.10;;
47778;SDS011;33538;48.432;11.350;2024-02-21T10:20:32;4.00;;;1.30;;
47778;SDS011;33538;48.432;11.350;2024-02-21T10:23:03;1.08;;;0.90;;
47778;SDS011;33538;48.432;11.350;2024-02-21T10:25:30;0.85;;;0.77;;
47778;SDS011;33538;48.432;11.350;2024-02-21T10:27:57;2.95;;;0.70;;
47778;SDS011;33538;48.432;11.350;2024-02-21T10:30:24;1.85;;;0.80;;
47778;SDS011;33538;48.432;11.350;2024-02-21T10:32:51;0.80;;;0.77;;
47778;SDS011;33538;48.432;11.350;2024-02-21T10:35:26;1.95;;;0.70;;
47778;SDS011;33538;48.432;11.350;2024-02-21T10:37:54;6.97;;;1.33;;
47778;SDS011;33538;48.432;11.350;2024-02-21T10:40:22;1.00;;;0.65;;
47778;SDS011;33538;48.432;11.350;2024-02-21T10:42:55;2.28;;;0.85;;
47778;SDS011;33538;48.432;11.350;2024-02-21T10:45:24;0.80;;;0.80;;
47778;SDS011;33538;48.432;11.350;2024-02-21T10:47:56;1.55;;;1.00;;
47778;SDS011;33538;48.432;11.350;2024-02-21T10:50:32;4.10;;;0.77;;
47778;SDS011;33538;48.432;11.350;2024-02-21T10:53:04;3.22;;;0.50;;
47778;SDS011;33538;48.432;11.350;2024-02-21T10:55:41;1.13;;;0.57;;
47778;SDS011;33538;48.432;11.350;2024-02-21T10:58:17;3.00;;;0.65;;
47778;SDS011;33538;48.432;11.350;2024-02-21T11:00:44;1.15;;;0.70;;
47778;SDS011;33538;48.432;11.350;2024-02-21T11:03:11;1.45;;;0.77;;
47778;SDS011;33538;48.432;11.350;2024-02-21T11:05:40;1.02;;;0.63;;
47778;SDS011;33538;48.432;11.350;2024-02-21T11:08:07;1.92;;;1.40;;
47778;SDS011;33538;48.432;11.350;2024-02-21T11:10:36;1.38;;;0.60;;
47778;SDS011;33538;48.432;11.350;2024-02-21T11:13:06;3.00;;;0.70;;
47778;SDS011;33538;48.432;11.350;2024-02-21T11:15:33;2.05;;;0.50;;
47778;SDS011;33538;48.432;11.350;2024-02-21T11:18:00;1.33;;;0.70;;
47778;SDS011;33538;48.432;11.350;2024-02-21T11:20:34;4.03;;;0.60;;
47778;SDS011;33538;48.432;11.350;2024-02-21T11:25:30;4.40;;;0.73;;
47778;SDS011;33538;48.432;11.350;2024-02-21T11:28:00;1.15;;;0.40;;
47778;SDS011;33538;48.432;11.350;2024-02-21T11:30:29;1.13;;;0.68;;
47778;SDS011;33538;48.432;11.350;2024-02-21T11:33:00;0.82;;;0.43;;
47778;SDS011;33538;48.432;11.350;2024-02-21T11:35:30;1.48;;;0.50;;
47778;SDS011;33538;48.432;11.350;2024-02-21T11:38:08;1.02;;;0.75;;
47778;SDS011;33538;48.432;11.350;2024-02-21T11:40:39;1.05;;;0.68;;
47778;SDS011;33538;48.432;11.350;2024-02-21T11:43:06;0.57;;;0.50;;
47778;SDS011;33538;48.432;11.350;2024-02-21T11:45:33;0.88;;;0.77;;
47778;SDS011;33538;48.432;11.350;2024-02-21T11:48:00;0.70;;;0.40;;
47778;SDS011;33538;48.432;11.350;2024-02-21T11:50:26;0.88;;;0.55;;
47778;SDS011;33538;48.432;11.350;2024-02-21T11:52:54;1.58;;;0.60;;
47778;SDS011;33538;48.432;11.350;2024-02-21T11:55:23;0.88;;;0.70;;
47778;SDS011;33538;48.432;11.350;2024-02-21T11:57:50;1.90;;;0.47;;
47778;SDS011;33538;48.432;11.350;2024-02-21T12:00:18;2.17;;;0.73;;
47778;SDS011;33538;48.432;11.350;2024-02-21T12:02:45;1.38;;;0.50;;
47778;SDS011;33538;48.432;11.350;2024-02-21T12:05:12;2.15;;;0.70;;
47778;SDS011;33538;48.432;11.350;2024-02-21T12:07:40;1.23;;;0.70;;
47778;SDS011;33538;48.432;11.350;2024-02-21T12:10:08;1.10;;;0.65;;
47778;SDS011;33538;48.432;11.350;2024-02-21T12:12:37;1.38;;;0.80;;
47778;SDS011;33538;48.432;11.350;2024-02-21T12:15:04;0.38;;;0.35;;
47778;SDS011;33538;48.432;11.350;2024-02-21T12:17:32;2.28;;;0.52;;
47778;SDS011;33538;48.432;11.350;2024-02-21T12:19:59;1.40;;;0.88;;
47778;SDS011;33538;48.432;11.350;2024-02-21T12:22:26;0.85;;;0.32;;
47778;SDS011;33538;48.432;11.350;2024-02-21T12:24:53;1.33;;;0.80;;
47778;SDS011;33538;48.432;11.350;2024-02-21T12:27:20;0.57;;;0.30;;
47778;SDS011;33538;48.432;11.350;2024-02-21T12:29:48;4.57;;;0.50;;
47778;SDS011;33538;48.432;11.350;2024-02-21T12:32:14;0.43;;;0.35;;
47778;SDS011;33538;48.432;11.350;2024-02-21T12:34:41;1.45;;;0.45;;
47778;SDS011;33538;48.432;11.350;2024-02-21T12:37:19;0.30;;;0.30;;
47778;SDS011;33538;48.432;11.350;2024-02-21T12:39:48;0.73;;;0.40;;
47778;SDS011;33538;48.432;11.350;2024-02-21T12:42:14;0.55;;;0.50;;
47778;SDS011;33538;48.432;11.350;2024-02-21T12:44:41;0.57;;;0.43;;
47778;SDS011;33538;48.432;11.350;2024-02-21T12:47:10;0.25;;;0.20;;
47778;SDS011;33538;48.432;11.350;2024-02-21T12:49:37;0.20;;;0.20;;
47778;SDS011;33538;48.432;11.350;2024-02-21T12:52:10;0.57;;;0.57;;
47778;SDS011;33538;48.432;11.350;2024-02-21T12:54:37;0.77;;;0.43;;
47778;SDS011;33538;48.432;11.350;2024-02-21T12:57:05;0.40;;;0.35;;
47778;SDS011;33538;48.432;11.350;2024-02-21T12:59:31;0.30;;;0.30;;
47778;SDS011;33538;48.432;11.350;2024-02-21T13:01:58;0.20;;;0.20;;
47778;SDS011;33538;48.432;11.350;2024-02-21T13:04:27;0.88;;;0.40;;
47778;SDS011;33538;48.432;11.350;2024-02-21T13:06:54;0.60;;;0.20;;
47778;SDS011;33538;48.432;11.350;2024-02-21T13:09:20;0.15;;;0.15;;
47778;SDS011;33538;48.432;11.350;2024-02-21T13:11:47;0.45;;;0.45;;
47778;SDS011;33538;48.432;11.350;2024-02-21T13:14:14;0.28;;;0.28;;
47778;SDS011;33538;48.432;11.350;2024-02-21T13:16:41;0.20;;;0.20;;
47778;SDS011;33538;48.432;11.350;2024-02-21T13:19:08;0.50;;;0.40;;
47778;SDS011;33538;48.432;11.350;2024-02-21T13:21:36;0.57;;;0.47;;
47778;SDS011;33538;48.432;11.350;2024-02-21T13:24:03;1.92;;;0.50;;
47778;SDS011;33538;48.432;11.350;2024-02-21T13:26:30;0.93;;;0.40;;
47778;SDS011;33538;48.432;11.350;2024-02-21T13:28:57;0.25;;;0.25;;
47778;SDS011;33538;48.432;11.350;2024-02-21T13:31:24;0.63;;;0.28;;
47778;SDS011;33538;48.432;11.350;2024-02-21T13:33:51;0.30;;;0.30;;
47778;SDS011;33538;48.432;11.350;2024-02-21T13:36:18;0.20;;;0.20;;
47778;SDS011;33538;48.432;11.350;2024-02-21T13:38:46;0.60;;;0.47;;
47778;SDS011;33538;48.432;11.350;2024-02-21T13:41:13;0.63;;;0.28;;
47778;SDS011;33538;48.432;11.350;2024-02-21T13:43:40;0.32;;;0.25;;
47778;SDS011;33538;48.432;11.350;2024-02-21T13:46:07;0.50;;;0.30;;
47778;SDS011;33538;48.432;11.350;2024-02-21T13:48:34;0.75;;;0.40;;
47778;SDS011;33538;48.432;11.350;2024-02-21T13:51:02;0.45;;;0.20;;
47778;SDS011;33538;48.432;11.350;2024-02-21T13:53:30;0.93;;;0.60;;
47778;SDS011;33538;48.432;11.350;2024-02-21T13:55:58;0.93;;;0.20;;
47778;SDS011;33538;48.432;11.350;2024-02-21T13:58:25;0.30;;;0.10;;
47778;SDS011;33538;48.432;11.350;2024-02-21T14:00:52;0.20;;;0.20;;
47778;SDS011;33538;48.432;11.350;2024-02-21T14:03:19;0.20;;;0.20;;
47778;SDS011;33538;48.432;11.350;2024-02-21T14:05:45;0.17;;;0.17;;
47778;SDS011;33538;48.432;11.350;2024-02-21T14:08:12;0.73;;;0.20;;
47778;SDS011;33538;48.432;11.350;2024-02-21T14:10:39;0.30;;;0.30;;
47778;SDS011;33538;48.432;11.350;2024-02-21T14:13:08;0.47;;;0.22;;
47778;SDS011;33538;48.432;11.350;2024-02-21T14:15:34;0.60;;;0.35;;
47778;SDS011;33538;48.432;11.350;2024-02-21T14:18:01;0.85;;;0.30;;
47778;SDS011;33538;48.432;11.350;2024-02-21T14:20:29;0.93;;;0.35;;
47778;SDS011;33538;48.432;11.350;2024-02-21T14:22:56;0.20;;;0.20;;
47778;SDS011;33538;48.432;11.350;2024-02-21T14:25:23;0.20;;;0.20;;
47778;SDS011;33538;48.432;11.350;2024-02-21T14:27:49;0.32;;;0.32;;
47778;SDS011;33538;48.432;11.350;2024-02-21T14:30:18;0.15;;;0.15;;
47778;SDS011;33538;48.432;11.350;2024-02-21T14:32:44;0.20;;;0.20;;
47778;SDS011;33538;48.432;11.350;2024-02-21T14:35:11;0.28;;;0.20;;
47778;SDS011;33538;48.432;11.350;2024-02-21T14:37:38;0.85;;;0.40;;
47778;SDS011;33538;48.432;11.350;2024-02-21T14:40:06;0.20;;;0.20;;